Time;durP1;ratioP1;P1;durP2;ratioP2;P2;SDS_P1;SDS_P2;PMS_P1;PMS_P2;Temp;Humidity;BMP_temperature;BMP_pressure;BME280_temperature;BME280_humidity;BME280_pressure;Samples;Min_cycle;Max_cycle;Signal;HPM_P1;HPM_P2
2021/06/21 00:02:04;;;;;;;13.05;11.70;;;;;;;22.20;62.49;99923.92;1732290;81;26610;-64
2021/06/21 00:04:30;;;;;;;14.20;12.53;;;;;;;22.18;62.62;99930.39;1736349;81;25734;-65
2021/06/21 00:06:57;;;;;;;13.45;12.13;;;;;;;22.14;62.75;99917.84;1698846;81;25973;-64
2021/06/21 00:09:23;;;;;;;16.40;11.93;;;;;;;22.10;62.69;99914.28;1682019;82;25885;-65
2021/06/21 00:11:50;;;;;;;13.22;11.85;;;;;;;22.05;62.72;99911.37;1684181;82;27493;-65
2021/06/21 00:14:16;;;;;;;15.08;11.60;;;;;;;22.00;62.78;99909.02;1675259;81;25770;-66
2021/06/21 00:16:42;;;;;;;14.13;12.75;;;;;;;21.95;62.89;99903.91;1709012;81;25720;-66
2021/06/21 00:19:09;;;;;;;13.65;12.03;;;;;;;21.89;62.91;99898.00;1705487;81;25881;-67
2021/06/21 00:21:37;;;;;;;13.85;11.38;;;;;;;21.85;63.29;99896.45;1706604;81;25836;-68
2021/06/21 00:24:05;;;;;;;20.17;12.35;;;;;;;21.77;63.29;99892.91;1706990;83;27909;-67
2021/06/21 00:26:32;;;;;;;16.07;12.93;;;;;;;21.74;63.38;99887.62;1697912;81;25882;-66
2021/06/21 00:28:58;;;;;;;15.80;11.93;;;;;;;21.71;63.60;99880.14;1705883;81;26420;-67
2021/06/21 00:31:25;;;;;;;14.33;12.85;;;;;;;21.64;63.68;99878.78;1718878;80;26284;-67
2021/06/21 00:33:52;;;;;;;19.67;12.63;;;;;;;21.62;63.79;99875.05;1667196;82;25862;-67
2021/06/21 00:36:18;;;;;;;19.65;13.05;;;;;;;21.57;63.84;99871.31;1745292;81;28082;-66
2021/06/21 00:38:45;;;;;;;18.52;13.22;;;;;;;21.55;64.13;99874.25;1731804;81;25872;-66
2021/06/21 00:41:11;;;;;;;17.02;12.15;;;;;;;21.51;64.21;99872.88;1736266;81;26097;-66
2021/06/21 00:43:38;;;;;;;16.75;12.30;;;;;;;21.51;64.47;99881.73;1709214;81;25788;-67
2021/06/21 00:46:04;;;;;;;15.20;12.20;;;;;;;21.49;64.51;99879.37;1708069;81;25817;-66
2021/06/21 00:48:31;;;;;;;17.87;13.55;;;;;;;21.47;64.65;99874.86;1698437;82;28162;-66
2021/06/21 00:50:58;;;;;;;14.58;13.00;;;;;;;21.47;64.72;99874.05;1681971;81;25768;-67
2021/06/21 00:53:29;;;;;;;17.07;12.70;;;;;;;21.47;64.84;99874.05;1705041;81;26646;-67
2021/06/21 00:55:56;;;;;;;16.12;12.07;;;;;;;21.46;64.83;99867.73;1681593;82;25890;-66
2021/06/21 00:58:23;;;;;;;13.93;12.50;;;;;;;21.44;64.91;99862.63;1704574;81;25728;-66
2021/06/21 01:00:49;;;;;;;15.43;12.82;;;;;;;21.44;65.04;99859.10;1713227;81;27607;-66
2021/06/21 01:03:16;;;;;;;15.08;13.53;;;;;;;21.43;65.10;99860.27;1726965;81;25897;-66
2021/06/21 01:05:43;;;;;;;14.20;12.73;;;;;;;21.41;65.11;99857.13;1718673;81;26427;-66
2021/06/21 01:08:10;;;;;;;14.93;12.98;;;;;;;21.41;65.13;99854.38;1722128;81;25810;-66
2021/06/21 01:10:40;;;;;;;16.23;13.05;;;;;;;21.39;65.22;99846.52;1706243;81;26514;-67
2021/06/21 01:13:28;;;;;;;18.15;14.28;;;;;;;21.39;65.31;99847.11;1710864;82;27385;-64
2021/06/21 01:16:02;;;;;;;16.17;13.10;;;;;;;21.37;65.34;99844.75;1703802;82;25750;-66
2021/06/21 01:18:33;;;;;;;14.18;12.73;;;;;;;21.34;65.33;99849.66;1703203;81;25850;-65
2021/06/21 01:21:49;;;;;;;13.83;12.50;;;;;;;21.32;65.41;99852.02;1711648;81;25771;-67
2021/06/21 01:24:41;;;;;;;14.55;13.10;;;;;;;21.29;65.61;99852.80;1711977;81;25701;-67
2021/06/21 01:27:51;;;;;;;15.78;13.78;;;;;;;21.27;65.60;99851.82;1726486;81;27337;-66
2021/06/21 01:30:36;;;;;;;14.60;13.20;;;;;;;21.25;65.74;99847.91;1679192;81;25725;-65
2021/06/21 01:33:05;;;;;;;14.60;12.95;;;;;;;21.20;65.62;99846.92;1702615;81;25754;-66
2021/06/21 01:35:39;;;;;;;15.75;12.80;;;;;;;21.16;65.59;99841.98;1735293;81;25768;-65
2021/06/21 01:38:15;;;;;;;14.83;13.20;;;;;;;21.12;65.62;99841.98;1734101;81;25773;-66
2021/06/21 01:40:46;;;;;;;14.95;13.38;;;;;;;21.08;65.74;99836.49;1733568;81;29568;-65
2021/06/21 01:43:17;;;;;;;14.65;12.90;;;;;;;21.02;65.74;99835.89;1713155;81;26329;-65
2021/06/21 01:45:45;;;;;;;16.65;13.80;;;;;;;20.99;65.92;99835.30;1719360;81;25714;-65
2021/06/21 01:48:13;;;;;;;15.27;13.63;;;;;;;20.95;66.09;99829.02;1715695;81;25858;-65
2021/06/21 01:50:41;;;;;;;15.58;12.28;;;;;;;20.89;66.08;99820.34;1716787;80;26606;-65
2021/06/21 01:53:13;;;;;;;18.12;14.13;;;;;;;20.82;66.23;99825.27;1678696;82;27347;-66
2021/06/21 01:56:02;;;;;;;14.85;13.32;;;;;;;20.78;66.28;99821.72;1726412;81;25889;-66
2021/06/21 01:58:33;;;;;;;17.17;13.20;;;;;;;20.74;66.33;99829.18;1713103;81;25997;-66
2021/06/21 02:01:03;;;;;;;15.03;13.48;;;;;;;20.70;66.38;99826.42;1703466;81;25744;-66
2021/06/21 02:03:31;;;;;;;14.60;13.10;;;;;;;20.66;66.47;99832.48;1697364;83;25886;-66
2021/06/21 02:05:59;;;;;;;17.00;12.53;;;;;;;20.62;66.50;99823.99;1737944;81;27408;-66
2021/06/21 02:08:28;;;;;;;15.28;13.53;;;;;;;20.57;66.68;99827.12;1726592;81;26051;-65
2021/06/21 02:10:57;;;;;;;15.32;13.62;;;;;;;20.51;66.85;99820.63;1714260;81;25863;-65
2021/06/21 02:13:25;;;;;;;16.50;13.65;;;;;;;20.48;66.90;99817.31;1711256;81;25685;-65
2021/06/21 02:15:54;;;;;;;16.42;12.98;;;;;;;20.46;66.99;99815.52;1701431;82;25669;-65
2021/06/21 02:18:22;;;;;;;;;;;;;;;20.43;67.24;99814.13;1715877;80;27450;-65
2021/06/21 02:20:53;;;;;;;14.65;11.18;;;;;;;20.41;67.64;99815.11;1699888;81;25850;-65
2021/06/21 02:23:24;;;;;;;14.60;12.88;;;;;;;20.37;67.62;99812.95;1702865;81;25830;-64
2021/06/21 02:25:53;;;;;;;14.28;12.00;;;;;;;20.37;67.93;99814.33;1697212;81;25786;-65
2021/06/21 02:28:21;;;;;;;15.20;12.15;;;;;;;20.35;68.28;99827.06;1699471;81;26559;-65
2021/06/21 02:30:51;;;;;;;17.48;12.98;;;;;;;20.36;68.25;99826.47;1694946;81;27337;-64
2021/06/21 02:33:19;;;;;;;14.83;12.75;;;;;;;20.36;68.37;99823.13;1696813;81;26603;-65
2021/06/21 02:35:47;;;;;;;14.78;11.85;;;;;;;20.37;68.39;99830.20;1696792;82;25961;-65
2021/06/21 02:38:14;;;;;;;13.38;12.00;;;;;;;20.39;68.44;99828.45;1710378;81;26229;-64
2021/06/21 02:40:41;;;;;;;13.58;12.18;;;;;;;20.37;68.49;99823.34;1722173;79;25784;-65
2021/06/21 02:43:09;;;;;;;15.18;12.43;;;;;;;20.36;68.53;99827.25;1715467;82;27382;-65
2021/06/21 02:45:36;;;;;;;20.27;12.37;;;;;;;20.35;68.62;99822.95;1719454;82;26155;-65
2021/06/21 02:48:06;;;;;;;13.53;11.68;;;;;;;20.36;68.57;99833.34;1719732;82;26340;-65
2021/06/21 02:50:37;;;;;;;12.47;10.78;;;;;;;20.34;68.66;99839.21;1681661;82;26044;-65
2021/06/21 02:53:39;;;;;;;14.05;11.15;;;;;;;20.33;68.74;99837.06;1720467;80;26631;-64
2021/06/21 02:56:22;;;;;;;19.05;10.70;;;;;;;20.33;68.73;99831.57;1611333;86;27305;-65
2021/06/21 02:58:51;;;;;;;13.55;11.83;;;;;;;20.32;68.76;99839.59;1586307;86;25735;-65
2021/06/21 03:01:20;;;;;;;12.00;10.80;;;;;;;20.31;68.89;99833.92;1639358;86;26052;-65
2021/06/21 03:03:54;;;;;;;15.00;10.50;;;;;;;20.31;68.94;99832.55;1601565;87;25784;-64
2021/06/21 03:06:23;;;;;;;10.98;9.20;;;;;;;20.31;69.10;99829.00;1615869;86;25911;-65
2021/06/21 03:08:52;;;;;;;;;;;;;;;20.33;69.08;99838.44;1644877;85;27694;-65
2021/06/21 03:11:19;;;;;;;11.08;9.48;;;;;;;20.33;69.37;99834.91;1647840;84;25944;-65
2021/06/21 03:13:48;;;;;;;13.20;9.00;;;;;;;20.34;69.19;99844.70;1614368;85;25870;-65
2021/06/21 03:16:16;;;;;;;;;;;;;;;20.34;69.21;99834.50;1648798;85;26186;-65
2021/06/21 03:18:43;;;;;;;14.60;9.93;;;;;;;20.38;69.39;99836.48;1648115;85;25936;-65
2021/06/21 03:21:11;;;;;;;15.28;9.95;;;;;;;20.37;69.23;99838.45;1644473;86;29595;-65
2021/06/21 03:23:39;;;;;;;19.07;10.85;;;;;;;20.40;69.27;99834.13;1641025;84;26541;-66
2021/06/21 03:26:06;;;;;;;12.65;8.43;;;;;;;20.44;69.38;99844.55;1628655;82;25899;-64
2021/06/21 03:28:33;;;;;;;13.90;8.90;;;;;;;20.46;69.33;99829.84;1708852;81;26437;-66
2021/06/21 03:31:04;;;;;;;11.93;9.00;;;;;;;20.50;69.38;99831.44;1702191;81;25782;-66
2021/06/21 03:33:31;;;;;;;11.12;8.68;;;;;;;20.53;69.32;99827.92;1705076;81;26854;-66
2021/06/21 03:35:58;;;;;;;15.13;8.68;;;;;;;20.59;69.27;99827.55;1707862;82;26562;-66
2021/06/21 03:38:30;;;;;;;17.32;10.05;;;;;;;20.64;69.29;99831.31;1681860;83;26583;-66
2021/06/21 03:41:03;;;;;;;8.78;7.80;;;;;;;20.68;69.16;99826.60;1698667;82;26489;-65
2021/06/21 03:43:32;;;;;;;10.43;8.93;;;;;;;20.73;69.11;99832.31;1699635;82;26414;-65
2021/06/21 03:46:03;;;;;;;12.63;8.15;;;;;;;20.78;69.12;99823.69;1700588;81;28497;-66
2021/06/21 03:48:36;;;;;;;11.68;8.00;;;;;;;20.81;69.06;99838.80;1704448;81;25776;-65
2021/06/21 03:51:02;;;;;;;27.25;8.45;;;;;;;20.86;68.97;99831.55;1730459;80;25883;-65
2021/06/21 03:53:31;;;;;;;13.00;8.58;;;;;;;20.93;68.91;99836.88;1726719;81;26091;-66
2021/06/21 03:55:58;;;;;;;11.90;7.90;;;;;;;20.98;68.86;99837.86;1726177;81;25733;-66
2021/06/21 03:58:24;;;;;;;9.88;7.42;;;;;;;21.04;68.83;99836.28;1724793;81;27936;-66
2021/06/21 04:00:51;;;;;;;10.05;7.80;;;;;;;21.05;68.75;99833.14;1697690;82;25859;-66
2021/06/21 04:03:17;;;;;;;18.40;7.62;;;;;;;21.14;68.68;99839.63;1729682;80;25801;-66
2021/06/21 04:05:44;;;;;;;13.78;8.18;;;;;;;21.18;68.53;99839.06;1727921;81;25857;-66
2021/06/21 04:08:14;;;;;;;8.18;7.35;;;;;;;21.26;68.47;99840.61;1714696;81;26436;-66
2021/06/21 04:10:42;;;;;;;10.10;7.22;;;;;;;21.33;68.31;99845.33;1700053;81;27592;-66
2021/06/21 04:13:10;;;;;;;10.53;6.72;;;;;;;21.39;68.29;99844.36;1694930;81;25753;-66
2021/06/21 04:15:37;;;;;;;12.43;6.70;;;;;;;21.46;68.13;99844.36;1721287;81;25951;-66
2021/06/21 04:18:08;;;;;;;12.05;6.92;;;;;;;21.51;68.01;99850.87;1731583;81;26009;-66
2021/06/21 04:20:36;;;;;;;10.82;7.03;;;;;;;21.56;67.93;99847.72;1692328;83;25809;-65
2021/06/21 04:23:04;;;;;;;12.55;7.30;;;;;;;21.63;67.69;99845.55;1725215;81;28025;-65
2021/06/21 04:25:31;;;;;;;11.83;7.00;;;;;;;21.69;67.52;99851.44;1721833;81;25757;-65
2021/06/21 04:27:58;;;;;;;9.88;6.95;;;;;;;21.76;67.38;99854.16;1727073;81;25709;-66
2021/06/21 04:30:26;;;;;;;17.60;6.65;;;;;;;21.80;67.17;99861.25;1686380;81;25759;-66
2021/06/21 04:32:54;;;;;;;13.35;6.78;;;;;;;21.88;67.23;99855.15;1698125;82;25969;-66
2021/06/21 04:35:23;;;;;;;12.93;7.00;;;;;;;21.94;66.96;99850.80;1698055;80;27391;-66
2021/06/21 04:37:51;;;;;;;10.35;6.40;;;;;;;22.01;66.82;99849.42;1702650;80;26753;-66
2021/06/21 04:40:22;;;;;;;12.00;6.92;;;;;;;22.07;66.71;99844.88;1685017;82;26073;-66
2021/06/21 04:42:48;;;;;;;10.43;6.12;;;;;;;22.15;66.57;99849.16;1697891;82;25875;-66
2021/06/21 04:45:15;;;;;;;15.95;6.75;;;;;;;22.21;66.29;99848.95;1718477;80;25770;-66
2021/06/21 04:47:43;;;;;;;9.60;6.58;;;;;;;22.28;66.22;99850.33;1701912;81;28292;-67
2021/06/21 04:50:13;;;;;;;13.03;7.05;;;;;;;22.36;66.15;99851.09;1690421;81;25762;-66
2021/06/21 04:52:42;;;;;;;10.88;6.20;;;;;;;22.45;66.09;99855.57;1699262;81;25864;-65
2021/06/21 04:55:11;;;;;;;10.58;6.70;;;;;;;22.52;65.83;99858.89;1707515;80;26371;-63
2021/06/21 04:57:37;;;;;;;10.68;6.22;;;;;;;22.61;65.69;99864.77;1718500;82;25683;-64
2021/06/21 05:00:09;;;;;;;12.23;6.45;;;;;;;22.70;65.54;99860.97;1686054;82;27504;-64
2021/06/21 05:02:37;;;;;;;8.75;6.12;;;;;;;22.78;65.26;99866.44;1706039;81;25832;-65
2021/06/21 05:05:05;;;;;;;8.15;5.95;;;;;;;22.85;65.27;99865.81;1694452;82;25811;-65
2021/06/21 05:07:31;;;;;;;12.78;6.25;;;;;;;22.94;64.93;99870.27;1685706;82;25899;-65
2021/06/21 05:09:58;;;;;;;10.10;6.12;;;;;;;23.01;64.63;99864.53;1714342;80;25842;-65
2021/06/21 05:12:25;;;;;;;13.85;6.30;;;;;;;23.05;64.33;99866.06;1705332;81;27419;-65
2021/06/21 05:14:51;;;;;;;14.00;5.78;;;;;;;23.11;64.28;99866.46;1712314;79;26451;-65
2021/06/21 05:17:17;;;;;;;11.83;6.08;;;;;;;23.18;64.37;99862.88;1722347;80;25861;-65
2021/06/21 05:19:44;;;;;;;10.18;6.30;;;;;;;23.26;64.15;99856.12;1697146;81;25742;-65
2021/06/21 05:22:11;;;;;;;11.75;6.45;;;;;;;23.33;63.86;99860.77;1700426;81;25770;-66
2021/06/21 05:24:37;;;;;;;12.58;6.05;;;;;;;23.36;63.53;99857.20;1692678;81;28134;-67
2021/06/21 05:27:05;;;;;;;13.48;6.05;;;;;;;23.44;63.70;99862.85;1691741;81;25979;-67
2021/06/21 05:29:32;;;;;;;14.53;6.35;;;;;;;23.50;63.47;99859.86;1678300;82;26451;-67
2021/06/21 05:32:01;;;;;;;11.88;5.72;;;;;;;23.55;63.22;99866.31;1684626;79;25775;-66
2021/06/21 05:34:28;;;;;;;18.48;6.53;;;;;;;23.63;63.04;99867.02;1645704;85;26322;-65
2021/06/21 05:36:55;;;;;;;20.23;7.03;;;;;;;23.71;63.00;99868.53;1651262;84;27327;-65
2021/06/21 05:39:22;;;;;;;11.50;6.08;;;;;;;23.79;62.77;99868.65;1693276;82;25774;-66
2021/06/21 05:41:48;;;;;;;15.80;6.92;;;;;;;23.90;62.65;99860.28;1706966;82;25978;-65
2021/06/21 05:44:16;;;;;;;10.00;5.70;;;;;;;24.03;62.80;99861.33;1686308;82;26126;-63
2021/06/21 05:46:42;;;;;;;11.00;5.65;;;;;;;24.20;62.69;99866.46;1682261;81;25867;-64
2021/06/21 05:49:08;;;;;;;18.37;6.47;;;;;;;24.33;62.33;99867.30;1683854;82;28035;-64
2021/06/21 05:51:35;;;;;;;14.13;5.60;;;;;;;24.47;61.82;99862.99;1689218;82;25870;-64
2021/06/21 05:54:01;;;;;;;16.90;6.10;;;;;;;24.58;61.50;99873.33;1689249;82;25708;-64
2021/06/21 05:56:28;;;;;;;18.23;5.80;;;;;;;24.67;61.14;99866.51;1691760;82;25717;-64
2021/06/21 05:58:54;;;;;;;14.70;5.92;;;;;;;24.76;61.21;99862.64;1690496;81;25730;-64
2021/06/21 06:01:22;;;;;;;26.35;6.58;;;;;;;24.87;60.57;99863.26;1696191;82;27500;-64
2021/06/21 06:03:48;;;;;;;20.55;6.00;;;;;;;24.98;60.13;99865.28;1679992;83;25922;-64
2021/06/21 06:06:15;;;;;;;25.92;5.70;;;;;;;25.10;60.14;99875.59;1697975;82;26119;-65
2021/06/21 06:08:42;;;;;;;25.48;6.85;;;;;;;25.20;59.71;99864.96;1687333;81;26173;-65
2021/06/21 06:11:09;;;;;;;23.07;4.92;;;;;;;25.33;59.48;99867.32;1654214;84;25819;-65
2021/06/21 06:13:38;;;;;;;16.42;5.95;;;;;;;25.48;59.47;99867.10;1676082;82;27518;-65
2021/06/21 06:16:05;;;;;;;21.05;6.15;;;;;;;25.61;59.07;99882.49;1656305;84;25767;-65
2021/06/21 06:18:31;;;;;;;23.32;5.62;;;;;;;25.67;58.93;99874.67;1637382;84;26286;-65
2021/06/21 06:20:57;;;;;;;23.12;5.50;;;;;;;25.75;58.76;99875.34;1657773;84;26265;-65
2021/06/21 06:23:24;;;;;;;20.40;4.83;;;;;;;25.80;58.26;99861.00;1673752;82;26464;-63
2021/06/21 06:25:50;;;;;;;30.20;6.17;;;;;;;25.88;58.11;99876.87;1693901;82;28505;-65
2021/06/21 06:28:17;;;;;;;17.80;4.92;;;;;;;25.93;57.64;99875.61;1687295;81;25826;-64
2021/06/21 06:30:44;;;;;;;23.95;5.37;;;;;;;26.01;57.51;99876.45;1681257;82;26833;-64
2021/06/21 06:33:11;;;;;;;22.85;5.53;;;;;;;26.09;57.53;99874.34;1670310;82;25711;-64
2021/06/21 06:35:37;;;;;;;17.35;5.00;;;;;;;26.22;57.52;99874.48;1698415;82;26646;-64
2021/06/21 06:38:04;;;;;;;25.15;4.78;;;;;;;26.34;57.06;99881.38;1692892;82;26828;-65
2021/06/21 06:40:30;;;;;;;24.30;5.53;;;;;;;26.43;56.36;99874.67;1684345;82;25954;-65
2021/06/21 06:42:57;;;;;;;20.12;4.67;;;;;;;26.46;55.96;99866.27;1697543;82;26002;-65
2021/06/21 06:45:25;;;;;;;24.55;5.58;;;;;;;26.57;56.13;99864.64;1690413;82;25913;-66
2021/06/21 06:47:51;;;;;;;19.00;5.15;;;;;;;26.72;56.04;99868.55;1686502;82;26538;-65
2021/06/21 06:50:17;;;;;;;29.77;5.25;;;;;;;26.86;55.16;99865.44;1709284;82;28136;-65
2021/06/21 06:52:45;;;;;;;20.80;4.60;;;;;;;26.97;55.05;99871.53;1652355;84;25891;-68
2021/06/21 06:57:59;;;;;;;19.52;4.83;;;;;;;27.11;53.74;99866.25;1629877;85;27845;-67
2021/06/21 07:00:26;;;;;;;20.97;4.20;;;;;;;27.25;54.30;99854.63;1615474;86;25795;-66
2021/06/21 07:02:52;;;;;;;21.45;4.30;;;;;;;27.42;53.30;99855.44;1622077;86;27498;-66
2021/06/21 07:05:19;;;;;;;11.12;3.62;;;;;;;27.53;53.04;99847.00;1599044;87;25983;-67
2021/06/21 07:07:45;;;;;;;20.60;4.47;;;;;;;27.66;52.31;99840.72;1596445;87;26210;-67
2021/06/21 07:10:13;;;;;;;17.40;3.85;;;;;;;27.78;51.54;99844.78;1600828;87;26224;-67
2021/06/21 07:12:40;;;;;;;29.75;5.17;;;;;;;27.81;51.43;99846.07;1590312;88;26553;-67
2021/06/21 07:15:07;;;;;;;16.67;4.35;;;;;;;27.93;51.94;99843.97;1590253;88;27339;-64
2021/06/21 07:17:34;;;;;;;19.62;3.22;;;;;;;28.23;52.05;99839.77;1597872;87;25909;-66
2021/06/21 07:20:00;;;;;;;17.10;4.17;;;;;;;28.48;50.71;99843.98;1603909;87;26551;-67
2021/06/21 07:22:27;;;;;;;19.50;3.58;;;;;;;28.55;50.25;99840.83;1596792;87;27873;-67
2021/06/21 07:24:53;;;;;;;15.53;4.20;;;;;;;28.60;49.97;99836.91;1598921;87;26105;-65
2021/06/21 07:27:19;;;;;;;16.20;4.05;;;;;;;28.67;49.72;99849.23;1602759;87;27320;-67
2021/06/21 07:29:46;;;;;;;17.60;4.78;;;;;;;28.73;50.00;99853.63;1646555;84;27305;-67
2021/06/21 07:32:12;;;;;;;18.20;4.20;;;;;;;28.84;49.94;99849.91;1661398;84;25820;-67
2021/06/21 07:34:39;;;;;;;14.55;4.10;;;;;;;28.91;50.27;99846.09;1645727;84;25888;-67
2021/06/21 07:37:06;;;;;;;17.27;3.83;;;;;;;28.98;49.37;99848.67;1636486;85;25751;-68
2021/06/21 07:39:32;;;;;;;14.45;3.52;;;;;;;29.02;49.35;99847.16;1639495;85;27400;-67
2021/06/21 07:41:59;;;;;;;13.83;3.02;;;;;;;29.20;49.83;99853.56;1634152;85;25667;-67
2021/06/21 07:44:26;;;;;;;9.65;2.77;;;;;;;29.35;48.78;99851.86;1642897;85;26102;-66
2021/06/21 07:46:52;;;;;;;13.03;2.83;;;;;;;29.40;47.78;99858.88;1645163;84;27845;-64
2021/06/21 07:49:18;;;;;;;11.97;2.98;;;;;;;29.34;46.63;99854.49;1701629;81;26101;-64
2021/06/21 07:51:45;;;;;;;9.88;3.10;;;;;;;29.31;46.76;99846.27;1692034;81;27318;-65
2021/06/21 07:54:14;;;;;;;11.97;2.65;;;;;;;29.27;46.72;99844.19;1676135;84;27252;-63
2021/06/21 07:56:42;;;;;;;9.40;2.80;;;;;;;29.26;47.42;99839.87;1644123;85;26147;-63
2021/06/21 07:59:08;;;;;;;13.53;3.42;;;;;;;29.40;47.62;99842.93;1649465;85;26470;-63
2021/06/21 08:01:35;;;;;;;10.63;2.60;;;;;;;29.59;47.43;99831.95;1652210;84;26662;-62
2021/06/21 08:04:02;;;;;;;13.25;3.98;;;;;;;29.81;46.71;99829.23;1668017;83;27337;-62
2021/06/21 08:06:28;;;;;;;10.13;2.52;;;;;;;29.97;45.62;99819.91;1657200;84;25682;-62
2021/06/21 08:08:55;;;;;;;11.15;2.37;;;;;;;30.06;45.32;99829.72;1644653;85;25865;-62
2021/06/21 08:11:22;;;;;;;16.48;2.70;;;;;;;30.17;45.09;99831.50;1712564;82;25775;-63
2021/06/21 08:13:49;;;;;;;13.08;2.27;;;;;;;30.20;43.85;99831.83;1659051;83;26000;-64
2021/06/21 08:16:15;;;;;;;12.95;2.70;;;;;;;30.15;43.17;99832.59;1645100;84;27366;-63
2021/06/21 08:18:42;;;;;;;13.72;2.45;;;;;;;30.16;43.52;99837.53;1642089;84;27095;-63
2021/06/21 08:21:09;;;;;;;13.20;2.42;;;;;;;30.22;43.01;99839.11;1692180;82;25722;-64
2021/06/21 08:23:35;;;;;;;15.48;2.50;;;;;;;30.18;43.01;99830.88;1691641;81;26302;-67
2021/06/21 08:26:03;;;;;;;12.70;2.60;;;;;;;30.27;43.13;99819.00;1707156;81;25717;-65
2021/06/21 08:28:30;;;;;;;18.62;2.37;;;;;;;30.32;43.16;99820.56;1693559;81;28097;-64
2021/06/21 08:30:56;;;;;;;7.80;2.37;;;;;;;30.37;42.75;99821.26;1641633;82;26696;-64
2021/06/21 08:33:23;;;;;;;19.82;2.98;;;;;;;30.47;42.93;99822.86;1702017;81;25853;-65
2021/06/21 08:35:51;;;;;;;12.18;2.25;;;;;;;30.52;42.29;99824.42;1677103;82;25833;-64
2021/06/21 08:38:18;;;;;;;5.97;2.02;;;;;;;30.63;42.54;99831.00;1675859;83;25845;-65
2021/06/21 08:40:46;;;;;;;8.83;2.00;;;;;;;30.71;41.86;99823.11;1659949;83;29441;-64
2021/06/21 08:43:14;;;;;;;7.65;2.20;;;;;;;30.87;41.75;99824.27;1645200;83;26660;-65
2021/06/21 08:45:41;;;;;;;11.80;2.25;;;;;;;30.99;41.37;99814.84;1664443;83;25836;-64
2021/06/21 08:48:10;;;;;;;15.83;2.40;;;;;;;31.28;41.02;99837.57;1646929;83;25759;-65
2021/06/21 08:50:41;;;;;;;9.80;2.55;;;;;;;31.28;40.68;99821.44;1678360;83;25925;-64
2021/06/21 08:53:10;;;;;;;11.68;2.05;;;;;;;31.35;40.44;99820.36;1682483;82;27027;-64
2021/06/21 08:55:38;;;;;;;14.33;2.47;;;;;;;31.43;40.08;99838.36;1672446;82;25881;-64
2021/06/21 08:58:05;;;;;;;11.40;2.58;;;;;;;31.51;40.00;99815.12;1686475;82;25819;-65
2021/06/21 09:00:31;;;;;;;12.13;2.87;;;;;;;31.64;39.60;99815.11;1699966;81;26310;-64
2021/06/21 09:03:02;;;;;;;14.35;2.80;;;;;;;31.86;40.20;99800.80;1645604;84;25939;-65
2021/06/21 09:05:35;;;;;;;17.52;3.70;;;;;;;32.16;39.55;99808.86;1644101;84;27327;-65
2021/06/21 09:08:05;;;;;;;10.15;2.55;;;;;;;32.30;39.08;99804.61;1684512;82;25724;-65
2021/06/21 09:10:36;;;;;;;5.65;1.90;;;;;;;32.49;38.83;99803.95;1675412;83;25881;-64
2021/06/21 09:13:11;;;;;;;14.50;2.60;;;;;;;32.73;38.48;99795.63;1683006;82;26112;-64
2021/06/21 09:15:51;;;;;;;10.25;2.33;;;;;;;33.01;38.57;99806.66;1700071;82;25755;-65
2021/06/21 09:18:34;;;;;;;13.75;2.92;;;;;;;33.26;38.56;99797.04;1708039;81;29458;-64
2021/06/21 09:21:23;;;;;;;16.35;3.15;;;;;;;33.56;37.90;99788.69;1646069;84;25939;-65
2021/06/21 09:23:54;;;;;;;10.82;2.20;;;;;;;33.83;36.97;99808.72;1646785;85;25705;-64
2021/06/21 09:26:31;;;;;;;10.38;2.30;;;;;;;33.83;36.97;99808.72;1646593;84;25757;-66
2021/06/21 09:29:00;;;;;;;9.90;2.85;;;;;;;33.92;36.71;99808.65;1658236;84;25836;-66
2021/06/21 09:31:28;;;;;;;11.03;2.83;;;;;;;33.97;35.66;99796.76;1650004;84;27314;-64
2021/06/21 09:34:14;;;;;;;8.00;2.98;;;;;;;34.08;36.00;99800.38;1646625;84;26748;-65
2021/06/21 09:36:41;;;;;;;14.07;2.85;;;;;;;34.22;35.84;99798.23;1692970;82;25648;-65
2021/06/21 09:39:22;;;;;;;11.85;2.33;;;;;;;34.42;33.78;99806.57;1689892;82;26554;-63
2021/06/21 09:42:14;;;;;;;9.78;2.50;;;;;;;34.48;34.13;99822.88;1690078;82;26609;-64
2021/06/21 09:44:54;;;;;;;12.20;2.33;;;;;;;34.34;34.67;99798.40;1690421;82;27333;-63
2021/06/21 09:47:37;;;;;;;9.23;2.17;;;;;;;34.47;34.38;99803.08;1686533;82;25837;-64
2021/06/21 09:50:20;;;;;;;8.70;2.05;;;;;;;34.48;33.19;99791.20;1700200;82;25879;-65
2021/06/21 09:52:52;;;;;;;9.85;2.20;;;;;;;34.28;32.34;99795.52;1691742;81;25879;-66
2021/06/21 09:55:32;;;;;;;5.58;1.62;;;;;;;34.03;33.08;99787.79;1712450;81;25756;-65
2021/06/21 09:58:19;;;;;;;7.10;1.90;;;;;;;34.01;32.90;99784.70;1694163;82;27910;-65
2021/06/21 10:00:51;;;;;;;11.73;2.45;;;;;;;33.89;32.77;99771.75;1685150;82;26981;-64
2021/06/21 10:03:26;;;;;;;7.08;2.27;;;;;;;33.83;32.83;99777.27;1702179;81;25774;-64
2021/06/21 10:06:09;;;;;;;8.48;2.40;;;;;;;33.90;32.62;99770.47;1658061;84;25872;-64
2021/06/21 10:08:52;;;;;;;9.18;1.85;;;;;;;33.99;32.83;99770.39;1657085;84;25739;-64
2021/06/21 10:11:46;;;;;;;10.28;2.42;;;;;;;34.02;32.57;99764.42;1654544;84;27411;-66
2021/06/21 10:14:13;;;;;;;10.58;2.30;;;;;;;34.21;32.70;99795.27;1702814;82;26574;-65
2021/06/21 10:16:42;;;;;;;9.75;2.42;;;;;;;34.19;32.91;99771.11;1679071;81;25905;-65
2021/06/21 10:19:09;;;;;;;9.48;2.25;;;;;;;34.44;32.98;99766.15;1675159;82;25740;-65
2021/06/21 10:21:40;;;;;;;11.35;2.72;;;;;;;34.70;32.54;99777.52;1697487;82;25849;-65
2021/06/21 10:24:08;;;;;;;6.65;2.35;;;;;;;34.83;32.00;99763.16;1681326;81;28008;-64
2021/06/21 10:26:42;;;;;;;9.95;2.45;;;;;;;34.92;31.48;99777.08;1640727;85;26508;-63
2021/06/21 10:29:08;;;;;;;7.67;2.27;;;;;;;34.90;32.12;99762.73;1689007;82;25888;-64
2021/06/21 10:31:36;;;;;;;7.97;2.15;;;;;;;35.28;32.51;99762.96;1689288;81;27860;-64
2021/06/21 10:34:06;;;;;;;7.80;2.00;;;;;;;35.56;31.56;99752.67;1683320;82;25966;-66
2021/06/21 10:36:52;;;;;;;11.80;1.92;;;;;;;35.63;31.11;99752.98;1689363;82;27334;-66
2021/06/21 10:39:27;;;;;;;11.48;2.12;;;;;;;35.79;31.10;99742.42;1677125;81;25946;-64
2021/06/21 10:42:10;;;;;;;7.08;2.02;;;;;;;36.08;30.56;99739.97;1654253;84;26113;-63
2021/06/21 10:44:41;;;;;;;5.67;1.87;;;;;;;36.13;29.84;99749.73;1660096;83;26210;-64
2021/06/21 10:47:38;;;;;;;17.32;2.62;;;;;;;36.02;29.50;99738.53;1655927;84;25919;-65
2021/06/21 10:50:22;;;;;;;18.15;2.58;;;;;;;35.96;29.21;99739.14;1639248;84;27340;-65
2021/06/21 10:52:55;;;;;;;6.95;2.30;;;;;;;35.98;29.20;99738.00;1636778;85;26678;-65
2021/06/21 10:55:32;;;;;;;19.75;2.45;;;;;;;35.81;28.79;99746.91;1649053;84;25884;-64
2021/06/21 10:58:09;;;;;;;4.92;1.90;;;;;;;35.71;29.10;99734.41;1684691;81;26352;-65
2021/06/21 11:00:42;;;;;;;7.30;2.00;;;;;;;35.69;29.07;99727.11;1698098;82;26024;-64
2021/06/21 11:03:31;;;;;;;11.90;2.20;;;;;;;35.75;29.04;99724.37;1704132;82;27958;-64
2021/06/21 11:06:07;;;;;;;5.87;1.70;;;;;;;35.97;29.05;99727.23;1683551;82;25789;-64
2021/06/21 11:08:46;;;;;;;7.15;1.77;;;;;;;36.21;28.34;99731.12;1701582;82;26007;-65
2021/06/21 11:11:36;;;;;;;;;;;;;;;36.00;27.96;99724.20;1688423;82;25855;-64
2021/06/21 11:14:10;;;;;;;12.28;2.10;;;;;;;35.79;28.06;99733.37;1693999;82;25955;-64
2021/06/21 11:16:40;;;;;;;11.40;2.15;;;;;;;35.81;28.03;99730.03;1692859;82;27309;-67
2021/06/21 11:19:21;;;;;;;5.15;1.80;;;;;;;35.71;28.59;99728.02;1663142;83;25792;-65
2021/06/21 11:21:56;;;;;;;8.05;2.00;;;;;;;35.90;28.61;99723.59;1659036;83;26581;-66
2021/06/21 11:24:49;;;;;;;6.85;1.92;;;;;;;36.09;28.65;99736.66;1682295;82;25815;-66
2021/06/21 11:27:21;;;;;;;7.67;1.65;;;;;;;36.19;27.68;99727.41;1652920;84;25830;-65
2021/06/21 11:29:53;;;;;;;9.93;3.15;;;;;;;36.10;28.19;99724.79;1652705;84;27341;-62
2021/06/21 11:32:22;;;;;;;11.00;1.47;;;;;;;36.38;28.33;99720.01;1652991;84;25887;-62
2021/06/21 11:35:00;;;;;;;4.80;1.90;;;;;;;36.54;28.27;99711.52;1641665;85;25872;-61
2021/06/21 11:37:36;;;;;;;5.72;1.62;;;;;;;36.63;27.02;99705.69;1637449;84;27874;-60
2021/06/21 11:40:28;;;;;;;5.87;1.90;;;;;;;36.48;26.89;99713.55;1684170;83;26009;-62
2021/06/21 11:43:06;;;;;;;8.40;1.90;;;;;;;36.31;26.65;99715.61;1679464;83;27156;-62
2021/06/21 11:45:58;;;;;;;11.28;1.70;;;;;;;36.17;26.77;99710.89;1689870;82;25886;-63